Time;durP1;ratioP1;P1;durP2;ratioP2;P2;SDS_P1;SDS_P2;PMS_P1;PMS_P2;Temp;Humidity;BMP_temperature;BMP_pressure;BME280_temperature;BME280_humidity;BME280_pressure;Samples;Min_cycle;Max_cycle;Signal;HPM_P1;HPM_P2
2022/06/06 00:01:45;;;;;;;2.17;1.60;;;;;;;;;;5014984;28;20226;-87
2022/06/06 00:04:13;;;;;;;1.50;1.40;;;;;;;;;;5015506;28;20230;-87
2022/06/06 00:06:41;;;;;;;1.55;1.45;;;;;;;;;;5015510;28;20223;-87
2022/06/06 00:09:10;;;;;;;1.10;1.10;;;;;;;;;;5014449;28;20734;-87
2022/06/06 00:11:38;;;;;;;1.77;1.23;;;;;;;;;;5015260;28;20646;-88
2022/06/06 00:14:10;;;;;;;1.00;1.00;;;;;;;;;;5015303;28;20231;-87
2022/06/06 00:16:39;;;;;;;1.17;1.10;;;;;;;;;;5015469;28;20286;-88
2022/06/06 00:19:06;;;;;;;1.10;1.05;;;;;;;;;;5015368;28;20961;-86
2022/06/06 00:21:35;;;;;;;1.10;1.10;;;;;;;;;;5015522;28;20624;-87
2022/06/06 00:24:03;;;;;;;1.67;1.58;;;;;;;;;;5016607;28;20211;-87
2022/06/06 00:26:32;;;;;;;1.42;1.30;;;;;;;;;;5032440;28;20202;-88
2022/06/06 00:29:00;;;;;;;1.35;1.33;;;;;;;;;;5026617;28;20227;-87
2022/06/06 00:37:03;;;;;;;1.70;1.60;;;;;;;;;;5015542;28;20619;-87
2022/06/06 00:39:31;;;;;;;1.70;1.60;;;;;;;;;;5016062;28;20261;-88
2022/06/06 00:41:59;;;;;;;1.65;1.55;;;;;;;;;;5014661;28;20206;-87
2022/06/06 00:44:31;;;;;;;1.23;1.13;;;;;;;;;;5017465;28;20234;-88
2022/06/06 00:47:12;;;;;;;1.15;1.10;;;;;;;;;;5017748;28;20221;-87
2022/06/06 00:49:44;;;;;;;1.10;1.00;;;;;;;;;;5016795;28;20314;-87
2022/06/06 00:52:19;;;;;;;1.30;1.30;;;;;;;;;;5015491;28;20179;-87
2022/06/06 00:54:48;;;;;;;1.30;1.20;;;;;;;;;;5017061;28;20725;-87
2022/06/06 00:57:21;;;;;;;1.40;1.30;;;;;;;;;;5016350;28;20211;-87
2022/06/06 00:59:49;;;;;;;1.17;1.17;;;;;;;;;;5016262;28;20223;-87
2022/06/06 01:02:17;;;;;;;1.13;1.13;;;;;;;;;;5015535;28;20566;-87
2022/06/06 01:04:46;;;;;;;1.13;1.13;;;;;;;;;;5014353;28;20234;-88
2022/06/06 01:07:14;;;;;;;1.10;1.10;;;;;;;;;;5013745;28;20214;-87
2022/06/06 01:09:43;;;;;;;1.15;1.00;;;;;;;;;;5012928;28;20226;-88
2022/06/06 01:12:15;;;;;;;1.40;1.30;;;;;;;;;;5013284;28;20209;-87
2022/06/06 01:14:47;;;;;;;1.30;1.20;;;;;;;;;;5013500;28;20219;-87
2022/06/06 01:17:27;;;;;;;1.70;1.60;;;;;;;;;;5012992;28;20796;-87
2022/06/06 01:20:24;;;;;;;1.00;1.00;;;;;;;;;;5013039;28;20610;-88
2022/06/06 01:23:25;;;;;;;1.00;1.00;;;;;;;;;;5012290;28;20225;-87
2022/06/06 01:26:32;;;;;;;1.08;0.98;;;;;;;;;;5013050;28;20218;-87
2022/06/06 01:29:05;;;;;;;1.10;1.10;;;;;;;;;;5012653;28;20242;-87
2022/06/06 01:31:40;;;;;;;0.93;0.93;;;;;;;;;;5012192;28;20230;-87
2022/06/06 01:34:10;;;;;;;1.05;1.05;;;;;;;;;;5013098;28;20202;-87
2022/06/06 01:36:42;;;;;;;0.82;0.82;;;;;;;;;;5012869;28;20286;-87
2022/06/06 01:39:12;;;;;;;1.10;0.90;;;;;;;;;;5012996;28;20655;-87
2022/06/06 01:41:52;;;;;;;0.93;0.93;;;;;;;;;;5012295;28;20253;-87
2022/06/06 01:44:30;;;;;;;0.80;0.80;;;;;;;;;;5013311;28;20213;-87
2022/06/06 01:47:03;;;;;;;0.90;0.90;;;;;;;;;;5013198;28;20235;-87
2022/06/06 01:49:32;;;;;;;0.80;0.80;;;;;;;;;;5013024;28;20233;-87
2022/06/06 01:52:02;;;;;;;0.95;0.95;;;;;;;;;;5012810;28;20298;-87
2022/06/06 01:54:30;;;;;;;1.00;1.00;;;;;;;;;;5015371;28;20199;-87
2022/06/06 01:56:59;;;;;;;1.15;0.95;;;;;;;;;;5016915;28;20646;-87
2022/06/06 01:59:29;;;;;;;1.42;1.33;;;;;;;;;;5016446;28;20274;-87
2022/06/06 02:01:56;;;;;;;1.25;1.00;;;;;;;;;;5015818;28;20215;-87
2022/06/06 02:04:24;;;;;;;0.90;0.90;;;;;;;;;;5016281;28;20210;-87
2022/06/06 02:06:52;;;;;;;0.98;0.98;;;;;;;;;;5016359;28;20207;-87
2022/06/06 02:09:20;;;;;;;1.50;1.17;;;;;;;;;;5015744;28;20231;-87
2022/06/06 02:11:48;;;;;;;1.02;1.02;;;;;;;;;;5015381;28;20249;-87
2022/06/06 02:14:16;;;;;;;1.48;0.95;;;;;;;;;;5016015;28;20655;-87
2022/06/06 02:16:45;;;;;;;1.00;1.00;;;;;;;;;;5015768;28;20191;-87
2022/06/06 02:19:12;;;;;;;1.48;1.33;;;;;;;;;;5015593;28;20781;-87
2022/06/06 02:21:40;;;;;;;1.08;1.08;;;;;;;;;;5015389;28;20628;-87
2022/06/06 02:24:08;;;;;;;1.40;1.20;;;;;;;;;;5015703;28;20199;-87
2022/06/06 02:26:36;;;;;;;1.27;1.17;;;;;;;;;;5015600;28;20293;-87
2022/06/06 02:29:05;;;;;;;0.90;0.90;;;;;;;;;;5015569;28;20592;-87
2022/06/06 02:31:37;;;;;;;1.02;0.93;;;;;;;;;;5015406;28;20226;-88
2022/06/06 02:34:07;;;;;;;0.90;0.90;;;;;;;;;;5015279;28;20221;-87
2022/06/06 02:36:35;;;;;;;1.10;1.00;;;;;;;;;;5015817;28;20294;-87
2022/06/06 02:39:04;;;;;;;0.90;0.90;;;;;;;;;;5014955;28;20758;-87
2022/06/06 02:41:32;;;;;;;0.98;0.98;;;;;;;;;;5015077;28;20624;-88
2022/06/06 02:44:00;;;;;;;1.10;1.10;;;;;;;;;;5014938;28;20206;-87
2022/06/06 02:46:28;;;;;;;1.25;1.25;;;;;;;;;;5015091;28;20199;-86
2022/06/06 02:48:55;;;;;;;1.17;1.08;;;;;;;;;;5015118;28;20223;-86
2022/06/06 02:51:24;;;;;;;1.20;1.20;;;;;;;;;;5014687;28;20730;-89
2022/06/06 02:53:52;;;;;;;1.10;1.10;;;;;;;;;;5014737;28;20269;-87
2022/06/06 02:56:19;;;;;;;2.03;1.92;;;;;;;;;;5015365;28;20207;-86
2022/06/06 02:58:47;;;;;;;1.20;1.20;;;;;;;;;;5014959;28;20219;-87
2022/06/06 03:01:15;;;;;;;1.10;1.10;;;;;;;;;;5015292;28;20233;-87
2022/06/06 03:03:43;;;;;;;1.02;1.02;;;;;;;;;;5015019;28;20227;-87
2022/06/06 03:06:27;;;;;;;0.95;0.95;;;;;;;;;;5014596;28;20660;-87
2022/06/06 03:09:26;;;;;;;1.40;1.30;;;;;;;;;;5038423;22;20250;-79
2022/06/06 03:12:12;;;;;;;1.42;1.33;;;;;;;;;;4990139;28;20657;-82
2022/06/06 03:15:11;;;;;;;1.80;1.40;;;;;;;;;;4988543;28;20207;-83
2022/06/06 03:20:47;;;;;;;1.80;1.70;;;;;;;;;;4995313;28;20230;-82
2022/06/06 03:23:45;;;;;;;1.50;1.40;;;;;;;;;;4995431;28;20253;-83
2022/06/06 03:26:17;;;;;;;1.70;1.60;;;;;;;;;;4992470;28;20619;-83
2022/06/06 03:29:03;;;;;;;1.95;1.85;;;;;;;;;;4995349;28;20242;-82
2022/06/06 03:31:39;;;;;;;1.58;1.48;;;;;;;;;;4994953;28;20222;-83
2022/06/06 03:34:15;;;;;;;2.72;1.40;;;;;;;;;;4994564;28;20227;-83
2022/06/06 03:36:50;;;;;;;1.52;1.35;;;;;;;;;;4994157;28;20241;-83
2022/06/06 03:39:28;;;;;;;2.20;1.73;;;;;;;;;;4994028;28;20305;-83
2022/06/06 03:42:03;;;;;;;2.00;1.90;;;;;;;;;;4993188;28;20207;-83
2022/06/06 03:44:52;;;;;;;2.63;1.92;;;;;;;;;;4993720;28;20286;-81
2022/06/06 03:47:28;;;;;;;1.55;1.45;;;;;;;;;;4994040;28;20204;-82
2022/06/06 03:50:16;;;;;;;1.90;1.67;;;;;;;;;;4993722;28;20887;-83
2022/06/06 03:52:49;;;;;;;3.47;2.30;;;;;;;;;;4993406;28;20224;-82
2022/06/06 03:55:32;;;;;;;1.60;1.50;;;;;;;;;;4993937;28;20295;-82
2022/06/06 03:58:03;;;;;;;1.63;1.52;;;;;;;;;;4993616;28;20319;-82
2022/06/06 04:00:31;;;;;;;1.40;1.30;;;;;;;;;;4993489;28;20273;-82
2022/06/06 04:02:59;;;;;;;1.92;1.80;;;;;;;;;;4992907;28;20254;-83
2022/06/06 04:05:26;;;;;;;1.77;1.67;;;;;;;;;;4993688;28;20242;-81
2022/06/06 04:07:54;;;;;;;1.48;1.38;;;;;;;;;;4993292;28;20694;-83
2022/06/06 04:10:26;;;;;;;1.70;1.60;;;;;;;;;;4993220;28;20267;-82
2022/06/06 04:13:14;;;;;;;1.83;1.73;;;;;;;;;;4992757;28;20313;-83
2022/06/06 04:15:53;;;;;;;1.40;1.30;;;;;;;;;;4993604;28;20195;-83
2022/06/06 04:18:32;;;;;;;1.63;1.52;;;;;;;;;;4992253;28;20208;-82
2022/06/06 04:21:11;;;;;;;1.63;1.50;;;;;;;;;;4993654;28;20220;-82
2022/06/06 04:23:59;;;;;;;1.90;1.80;;;;;;;;;;4992957;28;20199;-82
2022/06/06 04:26:37;;;;;;;2.45;1.88;;;;;;;;;;4993180;28;20200;-82
2022/06/06 04:29:11;;;;;;;1.92;1.83;;;;;;;;;;4993265;28;20687;-82
2022/06/06 04:31:50;;;;;;;2.35;2.10;;;;;;;;;;4992496;28;20281;-83
2022/06/06 04:34:24;;;;;;;1.73;1.63;;;;;;;;;;4993403;28;20207;-82
2022/06/06 04:36:56;;;;;;;2.00;1.90;;;;;;;;;;4997638;28;20238;-84
2022/06/06 04:39:31;;;;;;;3.78;2.80;;;;;;;;;;5000370;28;20247;-82
2022/06/06 04:42:06;;;;;;;2.25;2.05;;;;;;;;;;4997942;28;20214;-83
2022/06/06 04:44:41;;;;;;;3.10;2.80;;;;;;;;;;4999284;28;20758;-83
2022/06/06 04:47:14;;;;;;;2.63;2.42;;;;;;;;;;4998116;28;20210;-83
2022/06/06 04:49:41;;;;;;;2.88;2.67;;;;;;;;;;4998966;28;20265;-83
2022/06/06 04:52:09;;;;;;;2.28;2.10;;;;;;;;;;4997345;28;20644;-82
2022/06/06 04:54:39;;;;;;;3.40;3.10;;;;;;;;;;4997857;28;20207;-82
2022/06/06 04:57:08;;;;;;;3.08;2.78;;;;;;;;;;4997996;28;20207;-82
2022/06/06 04:59:37;;;;;;;2.75;2.55;;;;;;;;;;4997469;28;20258;-83
2022/06/06 05:02:06;;;;;;;4.90;3.92;;;;;;;;;;4996105;28;20730;-83
2022/06/06 05:04:33;;;;;;;3.95;3.50;;;;;;;;;;4997841;28;20687;-83
2022/06/06 05:07:29;;;;;;;4.57;4.18;;;;;;;;;;4997500;28;20243;-82
2022/06/06 05:10:21;;;;;;;3.80;3.40;;;;;;;;;;4997227;28;20232;-82
2022/06/06 05:13:38;;;;;;;4.82;3.78;;;;;;;;;;4997014;28;20227;-84
2022/06/06 05:16:33;;;;;;;4.75;3.88;;;;;;;;;;4996976;28;20203;-83
2022/06/06 05:19:19;;;;;;;3.92;3.40;;;;;;;;;;4992391;28;20640;-82
2022/06/06 05:22:04;;;;;;;4.13;3.65;;;;;;;;;;4995285;28;20239;-83
2022/06/06 05:24:56;;;;;;;5.60;4.60;;;;;;;;;;4996874;28;20204;-83
2022/06/06 05:27:52;;;;;;;5.68;4.22;;;;;;;;;;4997155;28;20210;-83
2022/06/06 05:30:25;;;;;;;5.00;4.50;;;;;;;;;;4995936;28;20724;-83
2022/06/06 05:33:08;;;;;;;5.88;5.15;;;;;;;;;;4999029;28;20266;-83
2022/06/06 05:36:08;;;;;;;5.72;5.22;;;;;;;;;;4998567;28;20238;-83
2022/06/06 05:39:09;;;;;;;7.38;5.03;;;;;;;;;;4997145;28;20239;-86
2022/06/06 05:41:54;;;;;;;7.03;5.53;;;;;;;;;;4991443;28;20208;-87
2022/06/06 05:44:30;;;;;;;6.70;6.10;;;;;;;;;;4996530;28;20203;-86
2022/06/06 05:47:07;;;;;;;7.13;6.00;;;;;;;;;;4996712;28;20282;-88
2022/06/06 05:49:55;;;;;;;5.07;4.22;;;;;;;;;;4996050;28;20215;-88
2022/06/06 05:52:56;;;;;;;4.68;4.22;;;;;;;;;;4995650;28;20258;-87
2022/06/06 05:55:42;;;;;;;4.47;3.95;;;;;;;;;;4995991;28;20207;-86
2022/06/06 05:58:40;;;;;;;5.32;4.63;;;;;;;;;;4996809;28;20211;-86
2022/06/06 06:01:24;;;;;;;4.32;3.92;;;;;;;;;;4995420;28;20219;-87
2022/06/06 06:04:18;;;;;;;3.70;3.40;;;;;;;;;;4995821;28;20235;-87
2022/06/06 06:06:54;;;;;;;3.83;3.50;;;;;;;;;;4988605;28;20199;-87
2022/06/06 06:09:41;;;;;;;4.88;3.55;;;;;;;;;;4996036;28;20231;-88
2022/06/06 06:12:26;;;;;;;3.53;3.22;;;;;;;;;;4995257;28;20235;-89
2022/06/06 06:15:05;;;;;;;4.15;3.75;;;;;;;;;;4996082;28;20239;-87
2022/06/06 06:17:33;;;;;;;4.05;3.30;;;;;;;;;;4996018;28;20263;-88
2022/06/06 06:20:09;;;;;;;5.07;4.68;;;;;;;;;;4996041;28;20267;-88
2022/06/06 06:22:40;;;;;;;3.78;3.47;;;;;;;;;;4995280;28;20265;-88
2022/06/06 06:25:10;;;;;;;3.85;3.30;;;;;;;;;;4995832;28;20210;-89
2022/06/06 06:27:39;;;;;;;3.55;3.10;;;;;;;;;;4995769;28;20258;-89
2022/06/06 06:30:09;;;;;;;3.47;3.17;;;;;;;;;;4995551;28;20226;-88
2022/06/06 06:32:55;;;;;;;3.22;2.90;;;;;;;;;;4995300;28;20229;-88
2022/06/06 06:35:38;;;;;;;2.95;2.63;;;;;;;;;;4995715;28;20243;-90
2022/06/06 06:38:29;;;;;;;3.08;2.88;;;;;;;;;;4995672;28;20250;-88
2022/06/06 06:41:05;;;;;;;2.72;2.53;;;;;;;;;;4994404;28;20223;-88
2022/06/06 06:43:47;;;;;;;4.22;3.63;;;;;;;;;;4975497;28;20705;-88
2022/06/06 06:46:19;;;;;;;3.40;3.10;;;;;;;;;;4984003;28;20267;-88
2022/06/06 06:48:51;;;;;;;3.35;2.60;;;;;;;;;;4977165;28;20224;-88
2022/06/06 06:51:26;;;;;;;3.40;3.13;;;;;;;;;;4976882;28;20196;-89
2022/06/06 06:54:13;;;;;;;3.95;3.15;;;;;;;;;;4975294;28;20274;-88
2022/06/06 06:57:06;;;;;;;2.90;2.70;;;;;;;;;;4975652;28;20196;-90
2022/06/06 06:59:51;;;;;;;2.40;2.20;;;;;;;;;;4975304;28;20228;-87
2022/06/06 07:08:33;;;;;;;2.40;2.20;;;;;;;;;;4984415;28;20203;-87
2022/06/06 07:11:22;;;;;;;2.60;2.40;;;;;;;;;;4995270;28;20241;-88
2022/06/06 07:14:05;;;;;;;2.60;2.40;;;;;;;;;;4975081;28;20252;-88
2022/06/06 07:16:35;;;;;;;2.10;2.00;;;;;;;;;;4975593;28;20243;-88
2022/06/06 07:19:08;;;;;;;2.35;2.15;;;;;;;;;;4975612;28;20296;-89
2022/06/06 07:21:38;;;;;;;2.10;2.00;;;;;;;;;;4975508;28;20224;-88
2022/06/06 07:24:10;;;;;;;2.08;1.98;;;;;;;;;;4975868;28;20208;-89
2022/06/06 07:26:41;;;;;;;3.70;3.40;;;;;;;;;;4976140;28;20216;-90
2022/06/06 07:29:10;;;;;;;2.92;2.70;;;;;;;;;;4976674;28;20601;-89
2022/06/06 07:31:57;;;;;;;2.97;2.70;;;;;;;;;;4976072;28;20204;-88
2022/06/06 07:34:52;;;;;;;2.83;2.63;;;;;;;;;;4976135;28;20263;-87
2022/06/06 07:37:36;;;;;;;2.65;2.45;;;;;;;;;;4975614;28;20633;-88
2022/06/06 07:40:10;;;;;;;2.72;2.53;;;;;;;;;;4975912;28;20224;-88
2022/06/06 07:42:57;;;;;;;3.63;2.65;;;;;;;;;;4999019;28;20383;-88
2022/06/06 07:45:32;;;;;;;2.38;2.28;;;;;;;;;;5014315;28;20610;-88
2022/06/06 07:48:17;;;;;;;1.80;1.70;;;;;;;;;;5014308;28;20219;-88
2022/06/06 07:50:53;;;;;;;2.58;2.38;;;;;;;;;;5014071;28;20684;-88
2022/06/06 07:53:31;;;;;;;2.95;1.98;;;;;;;;;;5014546;28;20229;-85
2022/06/06 07:56:10;;;;;;;2.03;1.92;;;;;;;;;;5014589;28;20230;-87
2022/06/06 07:58:47;;;;;;;2.53;2.33;;;;;;;;;;5014309;28;20239;-87
2022/06/06 08:01:21;;;;;;;2.05;1.85;;;;;;;;;;5013867;28;20245;-88
2022/06/06 08:03:53;;;;;;;2.20;2.10;;;;;;;;;;5013240;28;20688;-87
2022/06/06 08:06:36;;;;;;;2.13;1.95;;;;;;;;;;5014042;28;20218;-87
2022/06/06 08:09:44;;;;;;;2.15;2.03;;;;;;;;;;5014038;28;20194;-88
2022/06/06 08:12:49;;;;;;;2.60;2.40;;;;;;;;;;4994206;28;20294;-85
2022/06/06 08:15:27;;;;;;;3.22;2.70;;;;;;;;;;4994073;28;20227;-87
2022/06/06 08:18:30;;;;;;;2.10;2.00;;;;;;;;;;4993176;28;20207;-87
2022/06/06 08:21:04;;;;;;;2.25;2.05;;;;;;;;;;4994436;28;20219;-86
2022/06/06 08:23:35;;;;;;;2.05;1.85;;;;;;;;;;4994113;28;20227;-88
2022/06/06 08:26:03;;;;;;;1.95;1.85;;;;;;;;;;4994498;28;20616;-88
2022/06/06 08:28:42;;;;;;;1.80;1.70;;;;;;;;;;4994142;28;20192;-88
2022/06/06 08:31:10;;;;;;;1.60;1.50;;;;;;;;;;4994180;28;20250;-87
2022/06/06 08:33:38;;;;;;;2.65;2.22;;;;;;;;;;4993395;28;20575;-88
2022/06/06 08:36:22;;;;;;;2.35;1.48;;;;;;;;;;4994541;28;20634;-88
2022/06/06 08:39:01;;;;;;;1.90;1.80;;;;;;;;;;4993833;28;20227;-89
2022/06/06 08:42:24;;;;;;;1.83;1.73;;;;;;;;;;4994147;28;20589;-87
2022/06/06 08:45:08;;;;;;;1.52;1.42;;;;;;;;;;4994150;28;20696;-88
2022/06/06 08:47:55;;;;;;;1.85;1.75;;;;;;;;;;4993876;28;20207;-87
2022/06/06 08:50:47;;;;;;;1.63;1.52;;;;;;;;;;4993889;28;20231;-88
2022/06/06 08:54:09;;;;;;;1.70;1.60;;;;;;;;;;4993443;28;20234;-87
2022/06/06 08:57:06;;;;;;;2.42;1.50;;;;;;;;;;4996628;28;20203;-88
2022/06/06 09:00:19;;;;;;;1.77;1.65;;;;;;;;;;4995661;28;20254;-84
2022/06/06 09:03:19;;;;;;;3.92;1.75;;;;;;;;;;5009935;28;20218;-85
2022/06/06 09:06:12;;;;;;;1.73;1.40;;;;;;;;;;5010918;28;20204;-85
2022/06/06 09:09:35;;;;;;;2.08;1.60;;;;;;;;;;5001663;28;20198;-87
2022/06/06 09:13:13;;;;;;;1.48;1.30;;;;;;;;;;5056516;23;20313;-84
2022/06/06 09:16:26;;;;;;;1.40;1.30;;;;;;;;;;4974856;28;20252;-84
2022/06/06 09:19:42;;;;;;;1.15;1.15;;;;;;;;;;4967934;28;20200;-85
2022/06/06 09:23:03;;;;;;;1.60;1.50;;;;;;;;;;5035562;28;20261;-82
2022/06/06 09:25:40;;;;;;;1.02;1.02;;;;;;;;;;4993257;28;20624;-83
2022/06/06 09:29:07;;;;;;;1.35;1.33;;;;;;;;;;5035452;28;20531;-84
2022/06/06 09:32:41;;;;;;;1.10;1.10;;;;;;;;;;5036388;28;20218;-83
2022/06/06 09:35:37;;;;;;;1.40;1.30;;;;;;;;;;5036783;28;20226;-83
2022/06/06 09:38:16;;;;;;;0.80;0.80;;;;;;;;;;5036578;28;20193;-84
2022/06/06 09:40:59;;;;;;;1.00;1.00;;;;;;;;;;5036422;28;20221;-85
2022/06/06 09:43:41;;;;;;;1.30;1.20;;;;;;;;;;5054897;28;20245;-84
2022/06/06 09:46:43;;;;;;;1.45;1.10;;;;;;;;;;5055659;28;20248;-85
2022/06/06 09:49:59;;;;;;;1.23;1.17;;;;;;;;;;5056001;28;20243;-83
2022/06/06 09:53:27;;;;;;;1.00;1.00;;;;;;;;;;5055101;28;20308;-85
2022/06/06 10:00:17;;;;;;;1.15;1.15;;;;;;;;;;5056717;28;20204;-84
2022/06/06 10:03:51;;;;;;;1.23;1.23;;;;;;;;;;5056145;28;20210;-83
2022/06/06 10:07:07;;;;;;;1.40;1.30;;;;;;;;;;5057250;28;20205;-83
2022/06/06 10:10:12;;;;;;;1.27;1.10;;;;;;;;;;5054423;28;20255;-82
2022/06/06 10:13:23;;;;;;;1.25;1.10;;;;;;;;;;5055522;28;20225;-83
2022/06/06 10:16:08;;;;;;;0.90;0.90;;;;;;;;;;5046879;28;20228;-83
2022/06/06 10:18:59;;;;;;;1.35;1.25;;;;;;;;;;5058517;28;20197;-82
2022/06/06 10:22:12;;;;;;;1.42;1.02;;;;;;;;;;5057657;28;20252;-85
2022/06/06 10:25:26;;;;;;;1.08;1.05;;;;;;;;;;5059211;28;20205;-86
2022/06/06 10:28:30;;;;;;;0.82;0.82;;;;;;;;;;5055639;28;20292;-84
2022/06/06 10:31:09;;;;;;;1.13;1.13;;;;;;;;;;5056384;28;20229;-85
2022/06/06 10:34:04;;;;;;;1.15;1.15;;;;;;;;;;5057777;28;20666;-83
2022/06/06 10:36:51;;;;;;;1.10;1.10;;;;;;;;;;5057529;28;20253;-84
2022/06/06 10:39:54;;;;;;;1.15;1.08;;;;;;;;;;5059064;28;20205;-85
2022/06/06 10:42:54;;;;;;;1.27;1.17;;;;;;;;;;5060275;28;20218;-83
2022/06/06 10:45:28;;;;;;;0.98;0.98;;;;;;;;;;5056604;28;20221;-83
2022/06/06 10:48:18;;;;;;;1.25;1.15;;;;;;;;;;5058268;28;20229;-83
2022/06/06 10:54:51;;;;;;;1.35;1.27;;;;;;;;;;5058598;28;20205;-83
2022/06/06 10:58:13;;;;;;;1.15;1.15;;;;;;;;;;4999125;28;20700;-83
2022/06/06 11:01:24;;;;;;;1.50;1.40;;;;;;;;;;5064038;28;20193;-83
2022/06/06 11:04:11;;;;;;;1.05;1.05;;;;;;;;;;5059723;28;20201;-82
2022/06/06 11:07:20;;;;;;;1.15;1.15;;;;;;;;;;5066622;28;20307;-82
2022/06/06 11:10:12;;;;;;;1.05;1.00;;;;;;;;;;5064520;28;20204;-84
2022/06/06 11:13:11;;;;;;;1.48;1.48;;;;;;;;;;5065386;28;20234;-83
2022/06/06 11:15:42;;;;;;;1.77;1.20;;;;;;;;;;5062811;28;20226;-81
2022/06/06 11:18:42;;;;;;;1.40;1.30;;;;;;;;;;5064652;28;20205;-84
2022/06/06 11:21:48;;;;;;;1.50;1.40;;;;;;;;;;5065034;28;20218;-83
2022/06/06 11:24:23;;;;;;;3.20;1.52;;;;;;;;;;5067005;28;20205;-83
2022/06/06 11:27:18;;;;;;;2.25;1.30;;;;;;;;;;5068544;28;20212;-81
2022/06/06 11:30:09;;;;;;;1.35;1.35;;;;;;;;;;5070855;28;20210;-82
2022/06/06 11:33:31;;;;;;;1.40;1.30;;;;;;;;;;5066827;28;20285;-82
2022/06/06 11:36:23;;;;;;;2.13;2.03;;;;;;;;;;5065605;28;20313;-81
2022/06/06 11:39:24;;;;;;;2.53;1.52;;;;;;;;;;5066017;28;20693;-82
2022/06/06 11:42:12;;;;;;;1.60;1.50;;;;;;;;;;5065124;28;20276;-85
2022/06/06 11:45:13;;;;;;;1.67;1.58;;;;;;;;;;5068171;28;20630;-82
2022/06/06 11:48:18;;;;;;;1.48;1.38;;;;;;;;;;5068974;28;20282;-83
2022/06/06 11:51:36;;;;;;;1.23;1.23;;;;;;;;;;5066742;28;20259;-84
2022/06/06 11:54:29;;;;;;;1.77;1.67;;;;;;;;;;5060647;28;20208;-84
2022/06/06 11:57:36;;;;;;;1.50;1.40;;;;;;;;;;5063272;28;20240;-83
2022/06/06 12:00:29;;;;;;;1.58;1.40;;;;;;;;;;5064016;28;20228;-84
2022/06/06 12:04:00;;;;;;;1.98;1.88;;;;;;;;;;5061401;28;20244;-84
2022/06/06 12:07:28;;;;;;;1.25;1.25;;;;;;;;;;5008333;28;20282;-82
2022/06/06 12:10:03;;;;;;;1.50;1.40;;;;;;;;;;5023301;28;20209;-85
2022/06/06 12:13:03;;;;;;;1.60;1.50;;;;;;;;;;5063495;28;20233;-83
2022/06/06 12:16:11;;;;;;;1.70;1.60;;;;;;;;;;5060898;28;20230;-84
2022/06/06 12:19:08;;;;;;;1.42;1.38;;;;;;;;;;5058181;28;20233;-84
2022/06/06 12:22:08;;;;;;;1.52;1.42;;;;;;;;;;5060604;28;20229;-84
2022/06/06 12:25:18;;;;;;;1.38;1.27;;;;;;;;;;5059926;28;20205;-85
2022/06/06 12:28:15;;;;;;;1.35;1.25;;;;;;;;;;5059890;28;20198;-85
2022/06/06 12:30:59;;;;;;;1.08;1.08;;;;;;;;;;5060983;28;20288;-85
2022/06/06 12:33:31;;;;;;;1.20;1.20;;;;;;;;;;5061382;28;20560;-86
2022/06/06 12:36:03;;;;;;;1.00;1.00;;;;;;;;;;5058102;28;20260;-84
2022/06/06 12:38:47;;;;;;;2.47;1.38;;;;;;;;;;5056272;28;20239;-85
2022/06/06 12:41:38;;;;;;;1.33;1.23;;;;;;;;;;5056536;28;20225;-83
2022/06/06 12:44:29;;;;;;;1.10;1.10;;;;;;;;;;5056030;28;20212;-84
2022/06/06 12:47:31;;;;;;;1.15;1.08;;;;;;;;;;5059201;28;20233;-83
2022/06/06 12:50:28;;;;;;;1.10;1.10;;;;;;;;;;5047906;28;20724;-82
2022/06/06 12:53:33;;;;;;;1.05;1.05;;;;;;;;;;5059143;28;20198;-83
2022/06/06 12:56:21;;;;;;;1.30;1.20;;;;;;;;;;5060115;28;20250;-83
2022/06/06 12:59:06;;;;;;;1.10;1.10;;;;;;;;;;5058731;28;20202;-85
2022/06/06 13:01:47;;;;;;;0.88;0.88;;;;;;;;;;5057429;28;20213;-84
2022/06/06 13:04:47;;;;;;;0.98;0.98;;;;;;;;;;5058841;28;20212;-82
2022/06/06 13:07:45;;;;;;;0.95;0.95;;;;;;;;;;5045266;28;20237;-83
2022/06/06 13:10:25;;;;;;;0.90;0.90;;;;;;;;;;5058889;28;20244;-84
2022/06/06 13:13:13;;;;;;;0.85;0.85;;;;;;;;;;5057644;28;20205;-83
2022/06/06 13:15:46;;;;;;;1.33;1.23;;;;;;;;;;5057011;28;20201;-84
2022/06/06 13:18:54;;;;;;;0.85;0.85;;;;;;;;;;5059039;28;20225;-84
2022/06/06 13:21:34;;;;;;;0.80;0.80;;;;;;;;;;5065770;28;20225;-83
2022/06/06 13:24:37;;;;;;;0.70;0.70;;;;;;;;;;5063634;28;20206;-84
2022/06/06 13:27:22;;;;;;;0.68;0.68;;;;;;;;;;5065268;28;20264;-84
2022/06/06 13:29:49;;;;;;;1.08;0.90;;;;;;;;;;5066952;28;20292;-83
2022/06/06 13:32:39;;;;;;;0.90;0.90;;;;;;;;;;5064628;28;20225;-83
2022/06/06 13:35:21;;;;;;;0.60;0.60;;;;;;;;;;5065904;28;20201;-83
2022/06/06 13:38:10;;;;;;;0.80;0.80;;;;;;;;;;5064742;28;20221;-83
2022/06/06 13:40:43;;;;;;;0.70;0.70;;;;;;;;;;5062767;28;20226;-83
2022/06/06 13:43:49;;;;;;;0.77;0.77;;;;;;;;;;5060027;28;20202;-83
2022/06/06 13:46:44;;;;;;;0.77;0.77;;;;;;;;;;5056520;28;20241;-83
2022/06/06 13:49:45;;;;;;;0.52;0.47;;;;;;;;;;5057775;28;20206;-83
2022/06/06 13:52:25;;;;;;;0.60;0.60;;;;;;;;;;5057349;28;20252;-84
2022/06/06 13:54:54;;;;;;;0.50;0.50;;;;;;;;;;5061277;28;20229;-83
2022/06/06 13:57:26;;;;;;;0.82;0.82;;;;;;;;;;5057701;28;20263;-83
2022/06/06 14:00:10;;;;;;;0.90;0.90;;;;;;;;;;5057434;28;20205;-84
2022/06/06 14:02:52;;;;;;;0.70;0.70;;;;;;;;;;5056219;28;20264;-83
2022/06/06 14:05:42;;;;;;;0.77;0.77;;;;;;;;;;5057165;28;20236;-83
2022/06/06 14:08:12;;;;;;;0.57;0.50;;;;;;;;;;5056922;28;20234;-82
2022/06/06 14:11:01;;;;;;;0.90;0.90;;;;;;;;;;5056718;28;20202;-82
2022/06/06 14:13:53;;;;;;;0.90;0.90;;;;;;;;;;5055948;28;20241;-82
2022/06/06 14:16:27;;;;;;;0.60;0.60;;;;;;;;;;5053414;28;20248;-83
2022/06/06 14:18:59;;;;;;;0.88;0.70;;;;;;;;;;5055786;28;20232;-82
2022/06/06 14:21:31;;;;;;;0.80;0.80;;;;;;;;;;5056514;28;20287;-81
2022/06/06 14:24:12;;;;;;;0.80;0.80;;;;;;;;;;5055505;28;20194;-81
2022/06/06 14:26:41;;;;;;;3.17;1.08;;;;;;;;;;5055721;28;20201;-83
2022/06/06 14:29:15;;;;;;;0.70;0.70;;;;;;;;;;5055142;28;20673;-83
2022/06/06 14:31:50;;;;;;;1.05;0.90;;;;;;;;;;5055311;28;20729;-84
2022/06/06 14:34:30;;;;;;;0.90;0.90;;;;;;;;;;5055733;28;20287;-83
2022/06/06 14:37:18;;;;;;;0.77;0.77;;;;;;;;;;5056878;28;20322;-83
2022/06/06 14:39:48;;;;;;;0.60;0.60;;;;;;;;;;5059171;28;20206;-82
2022/06/06 14:42:21;;;;;;;1.63;0.80;;;;;;;;;;5054597;28;20309;-82
2022/06/06 14:44:58;;;;;;;0.55;0.55;;;;;;;;;;5056015;28;20197;-82
2022/06/06 14:47:26;;;;;;;0.68;0.68;;;;;;;;;;5056148;28;20244;-82
2022/06/06 14:52:58;;;;;;;0.63;0.63;;;;;;;;;;5055484;28;20213;-83
2022/06/06 14:55:27;;;;;;;0.68;0.68;;;;;;;;;;5050207;28;20623;-83
2022/06/06 14:57:56;;;;;;;0.80;0.80;;;;;;;;;;5053978;28;20308;-83
2022/06/06 15:00:37;;;;;;;0.73;0.73;;;;;;;;;;5055316;28;20245;-82
2022/06/06 15:03:09;;;;;;;0.82;0.82;;;;;;;;;;5055195;28;20212;-82
2022/06/06 15:05:37;;;;;;;0.98;0.85;;;;;;;;;;5055664;28;20212;-83
2022/06/06 15:08:11;;;;;;;0.80;0.80;;;;;;;;;;5055527;28;20212;-81
2022/06/06 15:13:08;;;;;;;0.80;0.80;;;;;;;;;;5054813;22;20230;-87
2022/06/06 15:15:36;;;;;;;0.85;0.80;;;;;;;;;;5050433;28;20254;-86
2022/06/06 15:18:04;;;;;;;1.17;0.80;;;;;;;;;;5034057;28;20351;-87
2022/06/06 15:20:34;;;;;;;0.63;0.63;;;;;;;;;;5034013;28;20221;-86
2022/06/06 15:23:07;;;;;;;0.63;0.63;;;;;;;;;;5033780;28;20628;-87
2022/06/06 15:25:41;;;;;;;0.80;0.80;;;;;;;;;;5033731;28;20692;-87
2022/06/06 15:28:24;;;;;;;0.80;0.80;;;;;;;;;;5033734;28;20285;-87
2022/06/06 15:30:57;;;;;;;1.00;1.00;;;;;;;;;;5038230;28;20199;-87
2022/06/06 15:33:39;;;;;;;0.80;0.80;;;;;;;;;;5033263;28;20569;-86
2022/06/06 15:36:13;;;;;;;0.80;0.80;;;;;;;;;;5033739;28;20278;-86
2022/06/06 15:39:02;;;;;;;0.65;0.65;;;;;;;;;;5033506;28;20218;-88
2022/06/06 15:41:45;;;;;;;0.60;0.60;;;;;;;;;;5027740;28;20252;-88
2022/06/06 15:44:27;;;;;;;1.25;1.17;;;;;;;;;;5033652;28;20210;-86
2022/06/06 15:47:03;;;;;;;0.73;0.73;;;;;;;;;;5033241;28;20648;-87
2022/06/06 15:50:13;;;;;;;0.80;0.80;;;;;;;;;;5033484;28;20212;-87
2022/06/06 15:53:06;;;;;;;0.68;0.68;;;;;;;;;;5031376;28;20284;-86
2022/06/06 15:55:40;;;;;;;1.10;1.00;;;;;;;;;;5033252;28;20722;-86
2022/06/06 15:58:38;;;;;;;0.80;0.80;;;;;;;;;;5032540;28;20589;-86
2022/06/06 16:01:13;;;;;;;0.80;0.80;;;;;;;;;;5026716;28;20264;-87
2022/06/06 16:04:15;;;;;;;0.70;0.70;;;;;;;;;;5020133;28;20292;-86
2022/06/06 16:06:45;;;;;;;0.75;0.63;;;;;;;;;;5020390;28;20213;-86
2022/06/06 16:09:24;;;;;;;0.60;0.60;;;;;;;;;;5032790;28;20198;-86
2022/06/06 16:12:04;;;;;;;0.80;0.80;;;;;;;;;;5026214;28;20206;-86
2022/06/06 16:14:58;;;;;;;0.77;0.77;;;;;;;;;;5032917;28;20206;-86
2022/06/06 16:17:38;;;;;;;1.15;1.10;;;;;;;;;;5032754;28;20214;-86
2022/06/06 16:20:15;;;;;;;1.00;1.00;;;;;;;;;;5027671;28;20291;-85
2022/06/06 16:22:46;;;;;;;0.90;0.90;;;;;;;;;;5033448;28;20206;-86
2022/06/06 16:25:21;;;;;;;0.80;0.80;;;;;;;;;;5032509;28;20272;-86
2022/06/06 16:27:57;;;;;;;0.80;0.80;;;;;;;;;;5032351;28;20202;-86
2022/06/06 16:30:30;;;;;;;0.70;0.70;;;;;;;;;;5032589;28;20202;-87
2022/06/06 16:33:23;;;;;;;0.90;0.90;;;;;;;;;;5032140;28;20206;-88
2022/06/06 16:35:54;;;;;;;0.90;0.90;;;;;;;;;;5032474;28;20265;-86
2022/06/06 16:38:25;;;;;;;0.70;0.70;;;;;;;;;;5032531;28;20321;-87
2022/06/06 16:40:59;;;;;;;1.85;0.88;;;;;;;;;;5031436;28;20236;-87
2022/06/06 16:47:59;;;;;;;1.08;1.08;;;;;;;;;;5090480;27;20652;-87
2022/06/06 16:50:56;;;;;;;0.80;0.80;;;;;;;;;;5076733;28;20212;-87